JES3790 SABE-SGAS
Flight info
| Callsign | JES3790 |
|---|---|
| Flight time | 1h 35m |
| Altitude | 37000 |
| Route | LANDA4B LANDA DCT GUA DCT DALAB UZ103 REPAM UP526 SAMGU SAMGU |
| Aircraft | A320/M-SDE3FGHIRWY/LB1 |
Departure
| Time | 2026-04-23 13:52 |
|---|---|
| Airport | Aeroparque Jorge Newbery (SABE) |
Arrival
| Time | 2026-04-23 15:28 |
|---|---|
| Airport | Silvio Pettirossi International Airport (SGAS) |
| Time | Latitude | Longitude | Altitude | Speed | Heading |
|---|---|---|---|---|---|
| 2026-04-23 13:04 | -34.55658 | -58.41533 | 26 ft | 0 kts | 7° |
| 2026-04-23 13:42 | -34.55670 | -58.41535 | 29 ft | 4 kts | 6° |
| 2026-04-23 13:42 | -34.55695 | -58.41535 | 30 ft | 4 kts | 335° |
| 2026-04-23 13:42 | -34.55713 | -58.41520 | 27 ft | 4 kts | 311° |
| 2026-04-23 13:42 | -34.55727 | -58.41493 | 30 ft | 4 kts | 297° |
| 2026-04-23 13:43 | -34.55731 | -58.41485 | 30 ft | 0 kts | 297° |
| 2026-04-23 13:46 | -34.55724 | -58.41501 | 30 ft | 5 kts | 295° |
| 2026-04-23 13:46 | -34.55727 | -58.41550 | 28 ft | 7 kts | 240° |
| 2026-04-23 13:46 | -34.55777 | -58.41594 | 28 ft | 10 kts | 223° |
| 2026-04-23 13:46 | -34.55761 | -58.41692 | 27 ft | 14 kts | 295° |
| 2026-04-23 13:47 | -34.55706 | -58.41811 | 25 ft | 18 kts | 304° |
| 2026-04-23 13:47 | -34.55636 | -58.41933 | 26 ft | 8 kts | 304° |
| 2026-04-23 13:47 | -34.55606 | -58.41990 | 25 ft | 8 kts | 303° |
| 2026-04-23 13:47 | -34.55571 | -58.42051 | 30 ft | 9 kts | 306° |
| 2026-04-23 13:48 | -34.55531 | -58.42115 | 30 ft | 10 kts | 308° |
| 2026-04-23 13:48 | -34.55488 | -58.42185 | 28 ft | 11 kts | 306° |
| 2026-04-23 13:48 | -34.55441 | -58.42260 | 29 ft | 12 kts | 309° |
| 2026-04-23 13:48 | -34.55407 | -58.42314 | 28 ft | 7 kts | 307° |
| 2026-04-23 13:49 | -34.55400 | -58.42326 | 25 ft | 0 kts | 308° |
| 2026-04-23 13:49 | -34.55399 | -58.42327 | 25 ft | 1 kts | 308° |
| 2026-04-23 13:49 | -34.55389 | -58.42343 | 27 ft | 4 kts | 307° |
| 2026-04-23 13:50 | -34.55387 | -58.42346 | 25 ft | 0 kts | 306° |
| 2026-04-23 13:50 | -34.55386 | -58.42348 | 25 ft | 1 kts | 306° |
| 2026-04-23 13:50 | -34.55363 | -58.42412 | 27 ft | 15 kts | 282° |
| 2026-04-23 13:50 | -34.55399 | -58.42510 | 28 ft | 11 kts | 194° |
| 2026-04-23 13:51 | -34.55417 | -58.42485 | 26 ft | 2 kts | 98° |
| 2026-04-23 13:51 | -34.55426 | -58.42471 | 26 ft | 3 kts | 124° |
| 2026-04-23 13:51 | -34.55447 | -58.42433 | 26 ft | 15 kts | 124° |
| 2026-04-23 13:51 | -34.55656 | -58.42059 | 27 ft | 89 kts | 124° |
| 2026-04-23 13:52 | -34.56101 | -58.41257 | 27 ft | 141 kts | 123° |
| 2026-04-23 13:52 | -34.56700 | -58.40208 | 414 ft | 152 kts | 126° |
| 2026-04-23 13:52 | -34.57359 | -58.39120 | 877 ft | 165 kts | 124° |
| 2026-04-23 13:52 | -34.57887 | -58.37895 | 1576 ft | 164 kts | 109° |
| 2026-04-23 13:53 | -34.58149 | -58.36520 | 2077 ft | 176 kts | 97° |
| 2026-04-23 13:53 | -34.58126 | -58.34944 | 2329 ft | 200 kts | 82° |
| 2026-04-23 13:53 | -34.57689 | -58.33239 | 2573 ft | 225 kts | 64° |
| 2026-04-23 13:53 | -34.57108 | -58.32138 | 2814 ft | 243 kts | 50° |
| 2026-04-23 13:54 | -34.55771 | -58.30757 | 3337 ft | 263 kts | 30° |
| 2026-04-23 13:54 | -34.54179 | -58.29595 | 4181 ft | 270 kts | 29° |
| 2026-04-23 13:54 | -34.52434 | -58.28734 | 5040 ft | 273 kts | 7° |
| 2026-04-23 13:54 | -34.49973 | -58.29037 | 6244 ft | 270 kts | 336° |
| 2026-04-23 13:55 | -34.48790 | -58.29602 | 6858 ft | 271 kts | 335° |
| 2026-04-23 13:55 | -34.47030 | -58.30461 | 7729 ft | 274 kts | 335° |
| 2026-04-23 13:55 | -34.45250 | -58.31334 | 8596 ft | 277 kts | 335° |
| 2026-04-23 13:55 | -34.43473 | -58.32204 | 9427 ft | 281 kts | 335° |
| 2026-04-23 13:56 | -34.41650 | -58.33096 | 10248 ft | 285 kts | 335° |
| 2026-04-23 13:56 | -34.39753 | -58.34022 | 10643 ft | 305 kts | 335° |
| 2026-04-23 13:56 | -34.37716 | -58.35016 | 10942 ft | 324 kts | 335° |
| 2026-04-23 13:56 | -34.35596 | -58.36044 | 11550 ft | 332 kts | 335° |
| 2026-04-23 13:57 | -34.33433 | -58.37084 | 12242 ft | 336 kts | 335° |
| 2026-04-23 13:57 | -34.31244 | -58.38135 | 12947 ft | 341 kts | 335° |
| 2026-04-23 13:57 | -34.28303 | -58.39549 | 13857 ft | 347 kts | 334° |
| 2026-04-23 13:57 | -34.26782 | -58.40279 | 14278 ft | 349 kts | 334° |
| 2026-04-23 13:58 | -34.24519 | -58.41367 | 14907 ft | 351 kts | 334° |
| 2026-04-23 13:58 | -34.22270 | -58.42448 | 15542 ft | 354 kts | 334° |
| 2026-04-23 13:58 | -34.19975 | -58.43550 | 16163 ft | 356 kts | 334° |
| 2026-04-23 13:58 | -34.17662 | -58.44662 | 16794 ft | 359 kts | 334° |
| 2026-04-23 13:59 | -34.15336 | -58.45781 | 17450 ft | 361 kts | 334° |
| 2026-04-23 13:59 | -34.12994 | -58.46907 | 18084 ft | 364 kts | 334° |
| 2026-04-23 13:59 | -34.10633 | -58.48040 | 18685 ft | 366 kts | 333° |
| 2026-04-23 13:59 | -34.08258 | -58.49179 | 19262 ft | 368 kts | 333° |
| 2026-04-23 14:00 | -34.05875 | -58.50320 | 19850 ft | 369 kts | 333° |
| 2026-04-23 14:00 | -34.03482 | -58.51464 | 20474 ft | 370 kts | 333° |
| 2026-04-23 14:00 | -34.01088 | -58.52606 | 21086 ft | 371 kts | 332° |
| 2026-04-23 14:00 | -33.98686 | -58.53755 | 21665 ft | 371 kts | 332° |
| 2026-04-23 14:01 | -33.96313 | -58.54897 | 22214 ft | 373 kts | 332° |
| 2026-04-23 14:01 | -33.93901 | -58.56058 | 22770 ft | 374 kts | 331° |
| 2026-04-23 14:01 | -33.91436 | -58.57121 | 23307 ft | 381 kts | 338° |
| 2026-04-23 14:01 | -33.88776 | -58.57636 | 23830 ft | 394 kts | 349° |
| 2026-04-23 14:02 | -33.86023 | -58.57755 | 24282 ft | 397 kts | 350° |
| 2026-04-23 14:02 | -33.83258 | -58.57869 | 24746 ft | 398 kts | 349° |
| 2026-04-23 14:02 | -33.80492 | -58.57985 | 25195 ft | 399 kts | 349° |
| 2026-04-23 14:02 | -33.77714 | -58.58105 | 25630 ft | 400 kts | 349° |
| 2026-04-23 14:03 | -33.74923 | -58.58226 | 26059 ft | 402 kts | 349° |
| 2026-04-23 14:03 | -33.72168 | -58.58347 | 26473 ft | 402 kts | 349° |
| 2026-04-23 14:03 | -33.69363 | -58.58474 | 26880 ft | 404 kts | 349° |
| 2026-04-23 14:03 | -33.66548 | -58.58599 | 27279 ft | 406 kts | 349° |
| 2026-04-23 14:04 | -33.63719 | -58.58718 | 27663 ft | 408 kts | 349° |
| 2026-04-23 14:04 | -33.60878 | -58.58836 | 28084 ft | 409 kts | 349° |
| 2026-04-23 14:04 | -33.58029 | -58.58956 | 28487 ft | 411 kts | 349° |
| 2026-04-23 14:04 | -33.55168 | -58.59079 | 28872 ft | 412 kts | 349° |
| 2026-04-23 14:05 | -33.52300 | -58.59204 | 29255 ft | 413 kts | 349° |
| 2026-04-23 14:05 | -33.49419 | -58.59330 | 29652 ft | 416 kts | 349° |
| 2026-04-23 14:05 | -33.46519 | -58.59457 | 30053 ft | 418 kts | 349° |
| 2026-04-23 14:05 | -33.43651 | -58.59581 | 30411 ft | 420 kts | 349° |
| 2026-04-23 14:06 | -33.40725 | -58.59709 | 30741 ft | 421 kts | 349° |
| 2026-04-23 14:06 | -33.37792 | -58.59837 | 31078 ft | 422 kts | 349° |
| 2026-04-23 14:06 | -33.34853 | -58.59964 | 31418 ft | 423 kts | 349° |
| 2026-04-23 14:06 | -33.31917 | -58.60090 | 31885 ft | 421 kts | 348° |
| 2026-04-23 14:07 | -33.28999 | -58.60213 | 32367 ft | 419 kts | 348° |
| 2026-04-23 14:07 | -33.23197 | -58.60457 | 33339 ft | 415 kts | 348° |
| 2026-04-23 14:07 | -33.20317 | -58.60580 | 33837 ft | 414 kts | 348° |
| 2026-04-23 14:08 | -33.17449 | -58.60704 | 34284 ft | 411 kts | 347° |
| 2026-04-23 14:08 | -33.14632 | -58.60824 | 34707 ft | 409 kts | 347° |
| 2026-04-23 14:08 | -33.11796 | -58.60942 | 35118 ft | 407 kts | 347° |
| 2026-04-23 14:08 | -33.08970 | -58.61058 | 35526 ft | 405 kts | 346° |
| 2026-04-23 14:09 | -33.06162 | -58.61175 | 35942 ft | 403 kts | 346° |
| 2026-04-23 14:09 | -33.03363 | -58.61295 | 36315 ft | 402 kts | 345° |
| 2026-04-23 14:09 | -33.00574 | -58.61413 | 36718 ft | 400 kts | 344° |
| 2026-04-23 14:09 | -32.97817 | -58.61586 | 37098 ft | 396 kts | 343° |
| 2026-04-23 14:10 | -32.92357 | -58.62069 | 37219 ft | 392 kts | 342° |
| 2026-04-23 14:10 | -32.86960 | -58.62585 | 37221 ft | 392 kts | 342° |
| 2026-04-23 14:11 | -32.81498 | -58.63072 | 37223 ft | 394 kts | 342° |
| 2026-04-23 14:11 | -32.76049 | -58.63524 | 37225 ft | 392 kts | 342° |
| 2026-04-23 14:12 | -32.70600 | -58.63972 | 37222 ft | 393 kts | 342° |
| 2026-04-23 14:12 | -32.65149 | -58.64427 | 37228 ft | 392 kts | 342° |
| 2026-04-23 14:13 | -32.59703 | -58.64881 | 37232 ft | 393 kts | 342° |
| 2026-04-23 14:13 | -32.54279 | -58.65334 | 37236 ft | 394 kts | 342° |
| 2026-04-23 14:14 | -32.48818 | -58.65787 | 37219 ft | 393 kts | 342° |
| 2026-04-23 14:14 | -32.43365 | -58.66242 | 37239 ft | 392 kts | 342° |
| 2026-04-23 14:15 | -32.37923 | -58.66703 | 37242 ft | 392 kts | 342° |
| 2026-04-23 14:15 | -32.32398 | -58.66885 | 37246 ft | 412 kts | 353° |
| 2026-04-23 14:16 | -32.26715 | -58.65743 | 37244 ft | 418 kts | 355° |
| 2026-04-23 14:16 | -32.20998 | -58.64528 | 37231 ft | 417 kts | 355° |
| 2026-04-23 14:17 | -32.15275 | -58.63332 | 37245 ft | 418 kts | 355° |
| 2026-04-23 14:17 | -32.09557 | -58.62137 | 37245 ft | 417 kts | 355° |
| 2026-04-23 14:18 | -32.03886 | -58.60967 | 37203 ft | 416 kts | 355° |
| 2026-04-23 14:18 | -31.98188 | -58.59802 | 37204 ft | 417 kts | 355° |
| 2026-04-23 14:19 | -31.92457 | -58.58617 | 37222 ft | 420 kts | 355° |
| 2026-04-23 14:19 | -31.86720 | -58.57420 | 37240 ft | 419 kts | 355° |
| 2026-04-23 14:20 | -31.80973 | -58.56232 | 37241 ft | 419 kts | 355° |
| 2026-04-23 14:20 | -31.75228 | -58.55053 | 37226 ft | 419 kts | 355° |
| 2026-04-23 14:21 | -31.69526 | -58.53885 | 37238 ft | 419 kts | 355° |
| 2026-04-23 14:21 | -31.63777 | -58.52709 | 37237 ft | 419 kts | 355° |
| 2026-04-23 14:22 | -31.58039 | -58.51521 | 37243 ft | 418 kts | 355° |
| 2026-04-23 14:22 | -31.52306 | -58.50344 | 37212 ft | 419 kts | 355° |
| 2026-04-23 14:23 | -31.46562 | -58.49179 | 37221 ft | 419 kts | 355° |
| 2026-04-23 14:23 | -31.40846 | -58.48014 | 37227 ft | 420 kts | 356° |
| 2026-04-23 14:24 | -31.35083 | -58.46839 | 37211 ft | 420 kts | 355° |
| 2026-04-23 14:24 | -31.29318 | -58.45672 | 37194 ft | 420 kts | 355° |
| 2026-04-23 14:25 | -31.23560 | -58.44504 | 37203 ft | 420 kts | 355° |
| 2026-04-23 14:25 | -31.17801 | -58.43329 | 37212 ft | 421 kts | 356° |
| 2026-04-23 14:26 | -31.12038 | -58.42153 | 37211 ft | 420 kts | 356° |
| 2026-04-23 14:26 | -31.06290 | -58.40982 | 37206 ft | 419 kts | 356° |
| 2026-04-23 14:27 | -31.00576 | -58.39823 | 37180 ft | 420 kts | 356° |
| 2026-04-23 14:27 | -30.94811 | -58.38666 | 37202 ft | 420 kts | 355° |
| 2026-04-23 14:28 | -30.89038 | -58.37513 | 37202 ft | 421 kts | 356° |
| 2026-04-23 14:28 | -30.83261 | -58.36269 | 37205 ft | 423 kts | 357° |
| 2026-04-23 14:29 | -30.77480 | -58.34963 | 37177 ft | 423 kts | 357° |
| 2026-04-23 14:29 | -30.71736 | -58.33683 | 37192 ft | 423 kts | 357° |
| 2026-04-23 14:30 | -30.65946 | -58.32415 | 37202 ft | 423 kts | 357° |
| 2026-04-23 14:30 | -30.60157 | -58.31146 | 37212 ft | 423 kts | 357° |
| 2026-04-23 14:31 | -30.54374 | -58.29950 | 37218 ft | 421 kts | 356° |
| 2026-04-23 14:31 | -30.48601 | -58.28866 | 37192 ft | 420 kts | 355° |
| 2026-04-23 14:32 | -30.42872 | -58.27799 | 37197 ft | 420 kts | 356° |
| 2026-04-23 14:32 | -30.37101 | -58.26695 | 37209 ft | 421 kts | 356° |
| 2026-04-23 14:33 | -30.31323 | -58.25575 | 37204 ft | 421 kts | 356° |
| 2026-04-23 14:33 | -30.25551 | -58.24466 | 37182 ft | 420 kts | 356° |
| 2026-04-23 14:34 | -30.19771 | -58.23357 | 37190 ft | 421 kts | 356° |
| 2026-04-23 14:34 | -30.14020 | -58.22251 | 37206 ft | 422 kts | 356° |
| 2026-04-23 14:35 | -30.08218 | -58.21146 | 37210 ft | 423 kts | 356° |
| 2026-04-23 14:35 | -30.02415 | -58.20031 | 37165 ft | 423 kts | 356° |
| 2026-04-23 14:36 | -29.96602 | -58.18918 | 37164 ft | 424 kts | 356° |
| 2026-04-23 14:36 | -29.90773 | -58.17816 | 37171 ft | 425 kts | 356° |
| 2026-04-23 14:37 | -29.84969 | -58.16704 | 37180 ft | 426 kts | 356° |
| 2026-04-23 14:37 | -29.79123 | -58.15572 | 37189 ft | 427 kts | 356° |
| 2026-04-23 14:38 | -29.73263 | -58.14356 | 37192 ft | 428 kts | 357° |
| 2026-04-23 14:38 | -29.67413 | -58.13101 | 37186 ft | 428 kts | 357° |
| 2026-04-23 14:39 | -29.61557 | -58.11855 | 37190 ft | 428 kts | 357° |
| 2026-04-23 14:39 | -29.55698 | -58.10634 | 37191 ft | 428 kts | 357° |
| 2026-04-23 14:40 | -29.49875 | -58.09440 | 37172 ft | 428 kts | 357° |
| 2026-04-23 14:40 | -29.44007 | -58.08225 | 37185 ft | 429 kts | 357° |
| 2026-04-23 14:41 | -29.38139 | -58.06913 | 37188 ft | 432 kts | 359° |
| 2026-04-23 14:41 | -29.32263 | -58.05333 | 37191 ft | 435 kts | 0° |
| 2026-04-23 14:42 | -29.26427 | -58.03712 | 37191 ft | 434 kts | 0° |
| 2026-04-23 14:42 | -29.20549 | -58.02139 | 37167 ft | 433 kts | 0° |
| 2026-04-23 14:43 | -29.14680 | -58.00610 | 37182 ft | 432 kts | 0° |
| 2026-04-23 14:43 | -29.08812 | -57.99079 | 37180 ft | 432 kts | 0° |
| 2026-04-23 14:44 | -29.02952 | -57.97544 | 37172 ft | 431 kts | 0° |
| 2026-04-23 14:44 | -28.97105 | -57.96011 | 37147 ft | 432 kts | 1° |
| 2026-04-23 14:45 | -28.91282 | -57.94487 | 37147 ft | 432 kts | 1° |
| 2026-04-23 14:45 | -28.85422 | -57.92958 | 37156 ft | 433 kts | 1° |
| 2026-04-23 14:46 | -28.79537 | -57.91427 | 37156 ft | 435 kts | 2° |
| 2026-04-23 14:46 | -28.73671 | -57.89871 | 37152 ft | 433 kts | 2° |
| 2026-04-23 14:47 | -28.67798 | -57.88321 | 37156 ft | 434 kts | 1° |
| 2026-04-23 14:47 | -28.61954 | -57.86818 | 37157 ft | 433 kts | 1° |
| 2026-04-23 14:48 | -28.56068 | -57.85312 | 37151 ft | 434 kts | 1° |
| 2026-04-23 14:48 | -28.50175 | -57.83790 | 37151 ft | 434 kts | 1° |
| 2026-04-23 14:49 | -28.44286 | -57.82263 | 37120 ft | 434 kts | 1° |
| 2026-04-23 14:49 | -28.38398 | -57.80738 | 37137 ft | 435 kts | 1° |
| 2026-04-23 14:50 | -28.32544 | -57.79220 | 37134 ft | 434 kts | 1° |
| 2026-04-23 14:50 | -28.26647 | -57.77697 | 37138 ft | 435 kts | 1° |
| 2026-04-23 14:51 | -28.20747 | -57.76146 | 37142 ft | 436 kts | 1° |
| 2026-04-23 14:51 | -28.14843 | -57.74587 | 37110 ft | 436 kts | 2° |
| 2026-04-23 14:52 | -28.08928 | -57.73032 | 37112 ft | 437 kts | 2° |
| 2026-04-23 14:52 | -28.03041 | -57.71501 | 37118 ft | 438 kts | 2° |
| 2026-04-23 14:53 | -27.97099 | -57.69952 | 37122 ft | 438 kts | 2° |
| 2026-04-23 14:53 | -27.91162 | -57.68390 | 37128 ft | 438 kts | 2° |
| 2026-04-23 14:54 | -27.85225 | -57.66832 | 37111 ft | 438 kts | 2° |
| 2026-04-23 14:54 | -27.79285 | -57.65286 | 37109 ft | 438 kts | 2° |
| 2026-04-23 14:55 | -27.73381 | -57.63752 | 37101 ft | 438 kts | 2° |
| 2026-04-23 14:55 | -27.67433 | -57.62204 | 37120 ft | 439 kts | 2° |
| 2026-04-23 14:56 | -27.61477 | -57.60655 | 37102 ft | 440 kts | 3° |
| 2026-04-23 14:56 | -27.55520 | -57.59103 | 37118 ft | 439 kts | 3° |
| 2026-04-23 14:57 | -27.49592 | -57.57566 | 37122 ft | 440 kts | 3° |
| 2026-04-23 14:57 | -27.43624 | -57.56048 | 37131 ft | 436 kts | 359° |
| 2026-04-23 14:58 | -27.40661 | -57.55735 | 36880 ft | 422 kts | 352° |
| 2026-04-23 14:58 | -27.37725 | -57.55640 | 36364 ft | 422 kts | 352° |
| 2026-04-23 14:58 | -27.34799 | -57.55559 | 35633 ft | 419 kts | 353° |
| 2026-04-23 14:58 | -27.31887 | -57.55485 | 34830 ft | 419 kts | 353° |
| 2026-04-23 14:59 | -27.28992 | -57.55413 | 34429 ft | 414 kts | 353° |
| 2026-04-23 14:59 | -27.26122 | -57.55340 | 34030 ft | 410 kts | 354° |
| 2026-04-23 14:59 | -27.23282 | -57.55260 | 33561 ft | 407 kts | 354° |
| 2026-04-23 14:59 | -27.20463 | -57.55179 | 33059 ft | 404 kts | 354° |
| 2026-04-23 15:00 | -27.17662 | -57.55095 | 32550 ft | 402 kts | 355° |
| 2026-04-23 15:00 | -27.14913 | -57.55013 | 32060 ft | 399 kts | 355° |
| 2026-04-23 15:00 | -27.12143 | -57.54930 | 31580 ft | 397 kts | 355° |
| 2026-04-23 15:00 | -27.09387 | -57.54851 | 31122 ft | 395 kts | 355° |
| 2026-04-23 15:01 | -27.06637 | -57.54771 | 30658 ft | 394 kts | 356° |
| 2026-04-23 15:01 | -27.03907 | -57.54690 | 30207 ft | 392 kts | 356° |
| 2026-04-23 15:01 | -27.01188 | -57.54609 | 29697 ft | 390 kts | 356° |
| 2026-04-23 15:01 | -26.98483 | -57.54533 | 29216 ft | 388 kts | 355° |
| 2026-04-23 15:02 | -26.96711 | -57.54485 | 28893 ft | 383 kts | 356° |
| 2026-04-23 15:02 | -26.93150 | -57.54393 | 28239 ft | 383 kts | 355° |
| 2026-04-23 15:02 | -26.90496 | -57.54320 | 27814 ft | 380 kts | 356° |
| 2026-04-23 15:02 | -26.87861 | -57.54235 | 27389 ft | 378 kts | 356° |
| 2026-04-23 15:03 | -26.85238 | -57.54152 | 26960 ft | 376 kts | 355° |
| 2026-04-23 15:03 | -26.82664 | -57.54093 | 26486 ft | 374 kts | 355° |
| 2026-04-23 15:03 | -26.80064 | -57.54063 | 26033 ft | 373 kts | 354° |
| 2026-04-23 15:03 | -26.77478 | -57.54048 | 25612 ft | 370 kts | 354° |
| 2026-04-23 15:04 | -26.74908 | -57.54032 | 25191 ft | 369 kts | 354° |
| 2026-04-23 15:04 | -26.72350 | -57.54011 | 24766 ft | 366 kts | 354° |
| 2026-04-23 15:04 | -26.69808 | -57.53988 | 24350 ft | 365 kts | 354° |
| 2026-04-23 15:04 | -26.67274 | -57.53965 | 23941 ft | 363 kts | 354° |
| 2026-04-23 15:05 | -26.64753 | -57.53943 | 23499 ft | 361 kts | 354° |
| 2026-04-23 15:05 | -26.62244 | -57.53918 | 23024 ft | 362 kts | 356° |
| 2026-04-23 15:05 | -26.59749 | -57.53880 | 22593 ft | 353 kts | 356° |
| 2026-04-23 15:05 | -26.57326 | -57.53839 | 22022 ft | 354 kts | 356° |
| 2026-04-23 15:06 | -26.54869 | -57.53807 | 21544 ft | 353 kts | 356° |
| 2026-04-23 15:06 | -26.52420 | -57.53786 | 21097 ft | 351 kts | 356° |
| 2026-04-23 15:06 | -26.49990 | -57.53765 | 20672 ft | 348 kts | 356° |
| 2026-04-23 15:06 | -26.47570 | -57.53741 | 20262 ft | 347 kts | 356° |
| 2026-04-23 15:07 | -26.45165 | -57.53714 | 19857 ft | 344 kts | 356° |
| 2026-04-23 15:07 | -26.42779 | -57.53689 | 19448 ft | 342 kts | 357° |
| 2026-04-23 15:07 | -26.40406 | -57.53666 | 19066 ft | 339 kts | 357° |
| 2026-04-23 15:07 | -26.38050 | -57.53640 | 18668 ft | 338 kts | 357° |
| 2026-04-23 15:08 | -26.35710 | -57.53613 | 18272 ft | 336 kts | 358° |
| 2026-04-23 15:08 | -26.33376 | -57.53586 | 17850 ft | 334 kts | 358° |
| 2026-04-23 15:08 | -26.31068 | -57.53563 | 17444 ft | 331 kts | 358° |
| 2026-04-23 15:09 | -26.26528 | -57.53522 | 16662 ft | 326 kts | 358° |
| 2026-04-23 15:09 | -26.24271 | -57.53502 | 16283 ft | 323 kts | 358° |
| 2026-04-23 15:09 | -26.22029 | -57.53483 | 15900 ft | 321 kts | 358° |
| 2026-04-23 15:09 | -26.19802 | -57.53460 | 15540 ft | 319 kts | 358° |
| 2026-04-23 15:10 | -26.18306 | -57.53443 | 15294 ft | 318 kts | 358° |
| 2026-04-23 15:10 | -26.15388 | -57.53408 | 14826 ft | 314 kts | 358° |
| 2026-04-23 15:10 | -26.13205 | -57.53383 | 14473 ft | 313 kts | 358° |
| 2026-04-23 15:10 | -26.11037 | -57.53357 | 14131 ft | 310 kts | 358° |
| 2026-04-23 15:11 | -26.08881 | -57.53333 | 13762 ft | 309 kts | 359° |
| 2026-04-23 15:11 | -26.06741 | -57.53097 | 13371 ft | 310 kts | 6° |
| 2026-04-23 15:11 | -26.04610 | -57.52744 | 13031 ft | 308 kts | 6° |
| 2026-04-23 15:11 | -26.02501 | -57.52398 | 12694 ft | 305 kts | 6° |
| 2026-04-23 15:12 | -26.00430 | -57.52060 | 12325 ft | 304 kts | 6° |
| 2026-04-23 15:12 | -25.98344 | -57.51721 | 11961 ft | 302 kts | 7° |
| 2026-04-23 15:12 | -25.96273 | -57.51385 | 11580 ft | 300 kts | 7° |
| 2026-04-23 15:12 | -25.94210 | -57.51054 | 11219 ft | 298 kts | 7° |
| 2026-04-23 15:13 | -25.92162 | -57.50724 | 10917 ft | 297 kts | 7° |
| 2026-04-23 15:13 | -25.90114 | -57.50392 | 10682 ft | 297 kts | 7° |
| 2026-04-23 15:13 | -25.88068 | -57.50054 | 10453 ft | 297 kts | 7° |
| 2026-04-23 15:13 | -25.86034 | -57.49721 | 10229 ft | 295 kts | 7° |
| 2026-04-23 15:14 | -25.84000 | -57.49393 | 10010 ft | 294 kts | 7° |
| 2026-04-23 15:14 | -25.82040 | -57.49076 | 9893 ft | 285 kts | 7° |
| 2026-04-23 15:14 | -25.80082 | -57.48761 | 9766 ft | 284 kts | 7° |
| 2026-04-23 15:14 | -25.78142 | -57.48447 | 9658 ft | 280 kts | 7° |
| 2026-04-23 15:15 | -25.76211 | -57.48134 | 9536 ft | 280 kts | 7° |
| 2026-04-23 15:15 | -25.74284 | -57.47824 | 9411 ft | 279 kts | 7° |
| 2026-04-23 15:15 | -25.72360 | -57.47521 | 9292 ft | 278 kts | 7° |
| 2026-04-23 15:15 | -25.70442 | -57.47215 | 9187 ft | 279 kts | 7° |
| 2026-04-23 15:16 | -25.68523 | -57.46899 | 9066 ft | 278 kts | 7° |
| 2026-04-23 15:16 | -25.66612 | -57.46587 | 8943 ft | 278 kts | 7° |
| 2026-04-23 15:16 | -25.64706 | -57.46276 | 8827 ft | 276 kts | 7° |
| 2026-04-23 15:16 | -25.62806 | -57.45968 | 8722 ft | 276 kts | 7° |
| 2026-04-23 15:17 | -25.60912 | -57.45661 | 8596 ft | 275 kts | 7° |
| 2026-04-23 15:17 | -25.59043 | -57.45360 | 8483 ft | 274 kts | 7° |
| 2026-04-23 15:17 | -25.57152 | -57.45056 | 8363 ft | 274 kts | 7° |
| 2026-04-23 15:17 | -25.55268 | -57.44753 | 8259 ft | 274 kts | 7° |
| 2026-04-23 15:18 | -25.53383 | -57.44446 | 8138 ft | 273 kts | 7° |
| 2026-04-23 15:18 | -25.51507 | -57.44142 | 8011 ft | 272 kts | 7° |
| 2026-04-23 15:18 | -25.49631 | -57.43844 | 7891 ft | 272 kts | 7° |
| 2026-04-23 15:18 | -25.47757 | -57.43544 | 7779 ft | 272 kts | 7° |
| 2026-04-23 15:19 | -25.45893 | -57.43246 | 7665 ft | 270 kts | 7° |
| 2026-04-23 15:19 | -25.44035 | -57.42952 | 7529 ft | 270 kts | 7° |
| 2026-04-23 15:19 | -25.42186 | -57.42660 | 7413 ft | 268 kts | 7° |
| 2026-04-23 15:19 | -25.40338 | -57.42364 | 7300 ft | 270 kts | 7° |
| 2026-04-23 15:20 | -25.39110 | -57.42159 | 7222 ft | 270 kts | 7° |
| 2026-04-23 15:20 | -25.36657 | -57.41755 | 7074 ft | 271 kts | 7° |
| 2026-04-23 15:20 | -25.34800 | -57.41411 | 6958 ft | 269 kts | 9° |
| 2026-04-23 15:20 | -25.32971 | -57.40986 | 7031 ft | 270 kts | 11° |
| 2026-04-23 15:21 | -25.31144 | -57.40532 | 7047 ft | 269 kts | 12° |
| 2026-04-23 15:21 | -25.29325 | -57.40056 | 7052 ft | 269 kts | 11° |
| 2026-04-23 15:21 | -25.27499 | -57.39594 | 7048 ft | 270 kts | 11° |
| 2026-04-23 15:21 | -25.25656 | -57.39137 | 6667 ft | 272 kts | 11° |
| 2026-04-23 15:22 | -25.23808 | -57.38692 | 6400 ft | 271 kts | 11° |
| 2026-04-23 15:22 | -25.21973 | -57.38246 | 6086 ft | 271 kts | 12° |
| 2026-04-23 15:22 | -25.20179 | -57.37802 | 5733 ft | 267 kts | 13° |
| 2026-04-23 15:22 | -25.18365 | -57.37377 | 5363 ft | 265 kts | 11° |
| 2026-04-23 15:23 | -25.16570 | -57.36951 | 4909 ft | 262 kts | 12° |
| 2026-04-23 15:23 | -25.14799 | -57.36519 | 4503 ft | 262 kts | 12° |
| 2026-04-23 15:23 | -25.13020 | -57.36083 | 4151 ft | 262 kts | 11° |
| 2026-04-23 15:23 | -25.11228 | -57.36040 | 3880 ft | 257 kts | 347° |
| 2026-04-23 15:24 | -25.09672 | -57.36918 | 3778 ft | 251 kts | 319° |
| 2026-04-23 15:24 | -25.08696 | -57.38485 | 3671 ft | 250 kts | 292° |
| 2026-04-23 15:24 | -25.08442 | -57.40366 | 3544 ft | 245 kts | 275° |
| 2026-04-23 15:24 | -25.08374 | -57.42207 | 3427 ft | 235 kts | 275° |
| 2026-04-23 15:25 | -25.08303 | -57.43979 | 3267 ft | 233 kts | 272° |
| 2026-04-23 15:25 | -25.08576 | -57.45787 | 2922 ft | 246 kts | 252° |
| 2026-04-23 15:25 | -25.09093 | -57.46895 | 2814 ft | 249 kts | 242° |
| 2026-04-23 15:25 | -25.10862 | -57.48610 | 2476 ft | 264 kts | 203° |
| 2026-04-23 15:26 | -25.12612 | -57.49166 | 2159 ft | 257 kts | 191° |
| 2026-04-23 15:26 | -25.14326 | -57.49571 | 1824 ft | 249 kts | 190° |
| 2026-04-23 15:26 | -25.16008 | -57.49973 | 1528 ft | 247 kts | 191° |
| 2026-04-23 15:26 | -25.17649 | -57.50372 | 1207 ft | 233 kts | 191° |
| 2026-04-23 15:27 | -25.19168 | -57.50743 | 955 ft | 212 kts | 191° |
| 2026-04-23 15:27 | -25.20532 | -57.51070 | 683 ft | 191 kts | 191° |
| 2026-04-23 15:27 | -25.21745 | -57.51370 | 464 ft | 168 kts | 190° |
| 2026-04-23 15:27 | -25.22814 | -57.51634 | 292 ft | 145 kts | 188° |
| 2026-04-23 15:28 | -25.23676 | -57.51822 | 274 ft | 94 kts | 194° |
| 2026-04-23 15:28 | -25.24058 | -57.51929 | 280 ft | 39 kts | 193° |
| 2026-04-23 15:28 | -25.24221 | -57.51960 | 282 ft | 10 kts | 171° |
| 2026-04-23 15:28 | -25.24260 | -57.51928 | 282 ft | 12 kts | 125° |
| 2026-04-23 15:29 | -25.24283 | -57.51807 | 279 ft | 13 kts | 98° |
| 2026-04-23 15:29 | -25.24286 | -57.51782 | 279 ft | 4 kts | 97° |
| 2026-04-23 15:29 | -25.24294 | -57.51741 | 281 ft | 7 kts | 110° |
| 2026-04-23 15:29 | -25.24306 | -57.51694 | 279 ft | 0 kts | 100° |
| 2026-04-23 15:30 | -25.24307 | -57.51689 | 279 ft | 0 kts | 100° |
| 2026-04-23 15:30 | -25.24304 | -57.51674 | 279 ft | 3 kts | 76° |
| 2026-04-23 15:30 | -25.24294 | -57.51662 | 279 ft | 0 kts | 32° |
| 2026-04-23 15:30 | -25.24284 | -57.51659 | 279 ft | 5 kts | 13° |
| 2026-04-23 15:31 | -25.24250 | -57.51650 | 279 ft | 10 kts | 10° |
| 2026-04-23 15:31 | -25.24180 | -57.51635 | 279 ft | 8 kts | 13° |
| 2026-04-23 15:31 | -25.24157 | -57.51626 | 279 ft | 4 kts | 26° |
| 2026-04-23 15:31 | -25.24132 | -57.51590 | 280 ft | 8 kts | 60° |
| 2026-04-23 15:32 | -25.24120 | -57.51520 | 278 ft | 4 kts | 114° |
| 2026-04-23 15:32 | -25.24124 | -57.51505 | 278 ft | 2 kts | 108° |
| 2026-04-23 15:32 | -25.24127 | -57.51493 | 280 ft | 1 kts | 108° |
| 2026-04-23 15:32 | -25.24127 | -57.51492 | 278 ft | 0 kts | 108° |